Time;durP1;ratioP1;P1;durP2;ratioP2;P2;SDS_P1;SDS_P2;PMS_P1;PMS_P2;Temp;Humidity;BMP_temperature;BMP_pressure;BME280_temperature;BME280_humidity;BME280_pressure;Samples;Min_cycle;Max_cycle;Signal;HPM_P1;HPM_P2
2022/06/09 00:01:12;;;;;;;26.42;6.20;;;22.30;60.30;;;;;;5068076;28;20032;-64
2022/06/09 00:03:53;;;;;;;21.83;5.95;;;22.30;60.20;;;;;;5066687;28;20036;-65
2022/06/09 00:06:19;;;;;;;24.40;6.38;;;22.30;60.20;;;;;;5066663;28;20269;-64
2022/06/09 00:08:46;;;;;;;26.65;6.82;;;22.20;60.30;;;;;;5065281;28;20459;-65
2022/06/09 00:11:14;;;;;;;24.77;6.32;;;22.20;60.10;;;;;;5062310;28;20044;-64
2022/06/09 00:13:41;;;;;;;25.13;6.15;;;22.20;60.10;;;;;;5067204;28;20028;-64
2022/06/09 00:16:07;;;;;;;24.35;6.22;;;22.20;60.10;;;;;;5081649;28;20035;-65
2022/06/09 00:18:33;;;;;;;27.85;6.40;;;22.20;61.40;;;;;;5066993;28;20085;-64
2022/06/09 00:20:59;;;;;;;26.20;6.10;;;22.20;60.20;;;;;;5065678;28;21993;-65
2022/06/09 00:23:24;;;;;;;22.73;6.18;;;22.20;60.20;;;;;;5059807;28;20028;-65
2022/06/09 00:25:50;;;;;;;20.77;5.35;;;22.20;60.10;;;;;;5065449;28;20048;-63
2022/06/09 00:28:15;;;;;;;23.80;6.30;;;22.20;60.10;;;;;;5066486;28;20055;-64
2022/06/09 00:30:41;;;;;;;22.38;5.70;;;22.20;60.10;;;;;;5064568;28;20037;-65
2022/06/09 00:33:07;;;;;;;19.67;5.35;;;22.20;60.10;;;;;;5065105;28;20120;-64
2022/06/09 00:35:32;;;;;;;25.77;6.15;;;22.10;60.00;;;;;;5064420;28;20025;-64
2022/06/09 00:37:58;;;;;;;26.25;6.22;;;22.10;60.10;;;;;;5065248;28;20628;-64
2022/06/09 00:40:24;;;;;;;20.77;5.55;;;22.10;60.00;;;;;;5066630;28;20032;-64
2022/06/09 00:42:50;;;;;;;21.98;6.00;;;22.10;60.00;;;;;;5064891;28;20070;-64
2022/06/09 00:45:39;;;;;;;23.98;5.75;;;22.10;60.00;;;;;;5063457;28;20132;-64
2022/06/09 00:48:19;;;;;;;20.08;5.57;;;22.10;60.10;;;;;;5062818;28;20028;-64
2022/06/09 00:50:46;;;;;;;26.02;6.45;;;22.10;60.10;;;;;;5058466;28;20044;-64
2022/06/09 00:53:14;;;;;;;25.13;6.22;;;22.10;60.10;;;;;;5061398;28;20473;-64
2022/06/09 00:55:40;;;;;;;18.50;5.32;;;22.10;60.20;;;;;;5068116;28;20029;-64
2022/06/09 00:58:08;;;;;;;20.25;5.25;;;22.10;60.20;;;;;;5063538;28;20181;-65
2022/06/09 01:01:01;;;;;;;18.33;5.10;;;22.10;61.10;;;;;;5064357;28;20073;-64
2022/06/09 01:03:30;;;;;;;23.15;5.68;;;22.10;60.10;;;;;;5062531;28;20059;-64
2022/06/09 01:06:02;;;;;;;21.20;5.50;;;22.00;60.10;;;;;;5059990;28;20530;-64
2022/06/09 01:08:29;;;;;;;24.00;6.07;;;22.00;60.10;;;;;;5046791;28;20119;-64
2022/06/09 01:10:54;;;;;;;19.17;5.78;;;22.00;60.10;;;;;;5063374;28;20076;-64
2022/06/09 01:13:20;;;;;;;19.77;5.05;;;22.00;60.10;;;;;;5065148;28;20465;-64
2022/06/09 01:15:56;;;;;;;18.27;4.95;;;22.00;60.10;;;;;;5078467;28;20702;-64
2022/06/09 01:18:36;;;;;;;18.88;5.38;;;22.00;60.10;;;;;;5064121;28;20509;-64
2022/06/09 01:21:47;;;;;;;21.75;5.28;;;22.00;60.10;;;;;;5063680;28;20400;-65
2022/06/09 01:24:45;;;;;;;18.60;5.75;;;22.00;60.10;;;;;;5061383;28;20494;-64
2022/06/09 01:27:32;;;;;;;18.33;4.88;;;22.00;60.10;;;;;;5058781;28;20071;-64
2022/06/09 01:30:14;;;;;;;19.52;5.13;;;21.90;60.00;;;;;;5061406;28;20020;-64
2022/06/09 01:32:48;;;;;;;17.80;5.20;;;21.90;60.00;;;;;;5061855;28;20074;-64
2022/06/09 01:35:25;;;;;;;21.23;5.18;;;21.90;60.10;;;;;;5061387;28;20528;-64
2022/06/09 01:37:54;;;;;;;17.20;4.18;;;21.90;60.00;;;;;;5055126;28;20056;-64
2022/06/09 01:40:20;;;;;;;20.33;5.15;;;21.90;60.10;;;;;;5063453;28;20086;-65
2022/06/09 01:42:48;;;;;;;19.15;5.13;;;21.90;60.00;;;;;;5061400;28;20045;-64
2022/06/09 01:45:18;;;;;;;19.63;4.85;;;21.90;60.10;;;;;;5063339;28;20041;-64
2022/06/09 01:48:02;;;;;;;20.63;5.05;;;21.90;60.10;;;;;;5065153;28;20027;-64
2022/06/09 01:50:35;;;;;;;19.53;4.97;;;21.90;60.10;;;;;;5021021;28;1150712;-64
2022/06/09 01:53:02;;;;;;;19.40;5.15;;;21.90;60.20;;;;;;5060419;28;20033;-64
2022/06/09 01:55:28;;;;;;;21.23;5.05;;;21.90;60.10;;;;;;5065784;28;20528;-64
2022/06/09 01:57:57;;;;;;;19.88;4.97;;;21.90;60.20;;;;;;5045863;28;20036;-64
2022/06/09 02:00:23;;;;;;;19.55;5.13;;;21.90;60.20;;;;;;5046013;28;20033;-64
2022/06/09 02:02:53;;;;;;;20.27;5.13;;;21.90;60.20;;;;;;5063347;28;20025;-64
2022/06/09 02:05:27;;;;;;;21.30;5.18;;;21.90;61.20;;;;;;5061407;28;20025;-64
2022/06/09 02:07:55;;;;;;;15.65;4.90;;;21.80;60.20;;;;;;5063245;28;20032;-64
2022/06/09 02:10:30;;;;;;;17.67;4.75;;;21.90;60.20;;;;;;5081439;28;20585;-65
2022/06/09 02:12:59;;;;;;;20.33;5.18;;;21.80;60.20;;;;;;5062306;28;20016;-64
2022/06/09 02:15:32;;;;;;;16.08;4.93;;;21.80;60.20;;;;;;5066276;28;20036;-64
2022/06/09 02:18:02;;;;;;;17.40;4.50;;;21.80;60.20;;;;;;5060625;28;20028;-64
2022/06/09 02:20:28;;;;;;;18.27;5.07;;;21.80;60.20;;;;;;5064527;28;20020;-64
2022/06/09 02:22:54;;;;;;;16.73;4.40;;;21.80;60.20;;;;;;5047947;28;20052;-64
2022/06/09 02:25:19;;;;;;;20.92;5.13;;;21.80;60.20;;;;;;5063932;28;20150;-64
2022/06/09 02:27:45;;;;;;;17.77;4.75;;;21.80;60.20;;;;;;5061435;28;20059;-64
2022/06/09 02:30:11;;;;;;;15.70;4.57;;;21.80;60.30;;;;;;5064236;28;20029;-65
2022/06/09 02:32:36;;;;;;;18.00;4.32;;;21.70;60.20;;;;;;5060929;28;20031;-64
2022/06/09 02:35:02;;;;;;;18.02;5.38;;;21.80;60.30;;;;;;5061969;28;20032;-65
2022/06/09 02:37:28;;;;;;;14.30;4.70;;;21.80;60.30;;;;;;5061858;28;20032;-64
2022/06/09 02:39:54;;;;;;;19.60;5.68;;;21.80;60.30;;;;;;5064415;28;20032;-64
2022/06/09 02:42:19;;;;;;;16.92;4.97;;;21.70;60.20;;;;;;5061774;28;20020;-64
2022/06/09 02:44:45;;;;;;;14.93;4.35;;;21.70;60.30;;;;;;5059672;28;20071;-64
2022/06/09 02:47:11;;;;;;;15.77;4.60;;;21.70;60.30;;;;;;5062342;28;20025;-64
2022/06/09 02:49:37;;;;;;;18.33;4.72;;;21.70;60.30;;;;;;5068087;28;20040;-64
2022/06/09 02:52:03;;;;;;;16.98;4.60;;;21.70;60.30;;;;;;5060668;28;20047;-64
2022/06/09 02:54:29;;;;;;;16.98;4.50;;;21.70;60.30;;;;;;5059733;28;20697;-64
2022/06/09 02:56:55;;;;;;;17.17;4.45;;;21.70;60.30;;;;;;5061933;28;20066;-64
2022/06/09 02:59:20;;;;;;;13.70;4.03;;;21.70;60.30;;;;;;5062064;28;20116;-64
2022/06/09 03:01:46;;;;;;;16.83;4.40;;;21.70;60.40;;;;;;5061580;28;20042;-64
2022/06/09 03:04:12;;;;;;;16.33;4.78;;;21.70;60.30;;;;;;5063617;28;20024;-64
2022/06/09 03:06:37;;;;;;;16.45;4.47;;;21.70;60.30;;;;;;5064217;28;20028;-64
2022/06/09 03:09:03;;;;;;;16.13;4.25;;;21.70;60.40;;;;;;5055157;28;20708;-61
2022/06/09 03:11:29;;;;;;;14.38;4.18;;;21.60;60.30;;;;;;5061701;28;20040;-61
2022/06/09 03:13:55;;;;;;;14.43;4.00;;;21.70;60.40;;;;;;5062558;28;20032;-61
2022/06/09 03:16:20;;;;;;;15.13;4.45;;;21.60;60.40;;;;;;5067963;28;20490;-61
2022/06/09 03:18:46;;;;;;;17.40;4.82;;;21.60;60.30;;;;;;5064129;28;20583;-60
2022/06/09 03:21:12;;;;;;;18.38;4.47;;;21.60;60.40;;;;;;5060121;28;20456;-59
2022/06/09 03:23:38;;;;;;;15.43;4.60;;;21.60;60.40;;;;;;5061746;28;20515;-60
2022/06/09 03:26:04;;;;;;;17.35;3.90;;;21.60;60.30;;;;;;5060695;28;20021;-61
2022/06/09 03:28:30;;;;;;;14.80;4.25;;;21.60;60.40;;;;;;5068321;28;20082;-59
2022/06/09 03:30:55;;;;;;;14.52;4.22;;;21.60;60.40;;;;;;5061497;28;20025;-61
2022/06/09 03:33:21;;;;;;;19.10;4.38;;;21.60;60.40;;;;;;5062191;28;20495;-61
2022/06/09 03:35:47;;;;;;;15.43;3.60;;;21.60;60.40;;;;;;5059628;28;20370;-61
2022/06/09 03:38:13;;;;;;;14.63;4.00;;;21.60;60.30;;;;;;5062823;28;20055;-61
2022/06/09 03:40:38;;;;;;;14.55;3.85;;;21.60;60.30;;;;;;5064363;28;20059;-60
2022/06/09 03:43:04;;;;;;;14.32;3.90;;;21.60;60.40;;;;;;5067022;28;20079;-60
2022/06/09 03:45:31;;;;;;;15.82;4.22;;;21.60;60.40;;;;;;5061746;28;20803;-60
2022/06/09 03:47:57;;;;;;;18.27;4.40;;;21.60;60.60;;;;;;5066405;28;21952;-60
2022/06/09 03:50:24;;;;;;;14.55;3.80;;;21.60;60.50;;;;;;5063524;28;20045;-60
2022/06/09 03:52:50;;;;;;;15.18;4.18;;;21.60;60.50;;;;;;5067076;28;21400;-60
2022/06/09 03:55:16;;;;;;;15.45;3.60;;;21.60;60.50;;;;;;5065779;28;20032;-60
2022/06/09 03:57:42;;;;;;;15.25;3.65;;;21.50;60.50;;;;;;5067845;28;20047;-60
2022/06/09 04:00:09;;;;;;;14.35;3.63;;;21.60;60.50;;;;;;5062126;28;20028;-60
2022/06/09 04:02:34;;;;;;;13.52;3.58;;;21.50;60.50;;;;;;5065621;28;20035;-60
2022/06/09 04:05:01;;;;;;;13.23;3.85;;;21.50;60.70;;;;;;5061469;28;21599;-60
2022/06/09 04:07:27;;;;;;;15.43;4.20;;;21.50;60.70;;;;;;5066699;28;20145;-60
2022/06/09 04:09:53;;;;;;;14.55;4.00;;;21.50;60.80;;;;;;5060855;28;20374;-60
2022/06/09 04:12:19;;;;;;;15.82;3.80;;;21.50;60.80;;;;;;5065442;28;20037;-60
2022/06/09 04:14:44;;;;;;;13.13;3.85;;;21.50;60.90;;;;;;5063208;28;20024;-60
2022/06/09 04:17:11;;;;;;;11.77;3.60;;;21.50;60.90;;;;;;5056756;28;20042;-60
2022/06/09 04:19:37;;;;;;;14.25;3.72;;;21.50;61.00;;;;;;5078306;28;20064;-60
2022/06/09 04:22:03;;;;;;;14.13;4.15;;;21.50;61.10;;;;;;5060098;28;20075;-60
2022/06/09 04:24:28;;;;;;;16.13;4.22;;;21.50;61.10;;;;;;5065748;28;20024;-60
2022/06/09 04:26:54;;;;;;;15.48;4.13;;;21.50;61.10;;;;;;5060999;28;20089;-60
2022/06/09 04:29:19;;;;;;;13.13;3.80;;;21.50;61.10;;;;;;5060918;28;20104;-60
2022/06/09 04:31:45;;;;;;;13.57;3.53;;;21.50;61.20;;;;;;5062191;28;20096;-60
2022/06/09 04:34:11;;;;;;;15.27;3.80;;;21.50;61.20;;;;;;5066077;28;20041;-60
2022/06/09 04:36:37;;;;;;;12.90;4.07;;;21.50;61.20;;;;;;5064407;28;20135;-60
2022/06/09 04:39:03;;;;;;;13.63;3.92;;;21.50;61.20;;;;;;5063557;28;20033;-60
2022/06/09 04:41:29;;;;;;;14.25;3.88;;;21.40;61.10;;;;;;5071030;28;20420;-60
2022/06/09 04:43:54;;;;;;;15.48;3.78;;;21.40;61.20;;;;;;5069804;28;20032;-60
2022/06/09 04:46:22;;;;;;;14.52;4.18;;;21.40;61.10;;;;;;5071587;28;20036;-60
2022/06/09 04:48:51;;;;;;;14.00;3.72;;;21.40;61.20;;;;;;5063192;28;20048;-60
2022/06/09 04:51:18;;;;;;;11.95;3.70;;;21.40;61.10;;;;;;5067773;28;20029;-60
2022/06/09 04:53:44;;;;;;;13.50;4.20;;;21.40;61.20;;;;;;5066333;28;20059;-60
2022/06/09 04:56:10;;;;;;;13.23;3.72;;;21.40;61.20;;;;;;5067227;28;20066;-60
2022/06/09 04:58:39;;;;;;;15.38;3.80;;;21.40;61.20;;;;;;5068713;28;20025;-60
2022/06/09 05:01:15;;;;;;;14.40;4.13;;;21.40;61.20;;;;;;5066384;28;20060;-60
2022/06/09 05:03:41;;;;;;;13.40;3.53;;;21.40;61.50;;;;;;5064119;28;20021;-60
2022/06/09 05:06:06;;;;;;;13.32;3.72;;;21.40;61.40;;;;;;5066983;28;20512;-60
2022/06/09 05:08:32;;;;;;;15.70;3.50;;;21.40;61.40;;;;;;5066670;28;20029;-60
2022/06/09 05:10:59;;;;;;;18.50;3.97;;;21.40;62.30;;;;;;5070030;28;20618;-60
2022/06/09 05:13:25;;;;;;;13.20;3.45;;;21.40;62.80;;;;;;5069842;28;20032;-60
2022/06/09 05:15:53;;;;;;;14.93;3.60;;;21.40;62.50;;;;;;5068427;28;20040;-60
2022/06/09 05:18:22;;;;;;;14.90;3.97;;;21.50;62.60;;;;;;5066074;28;20082;-60
2022/06/09 05:20:49;;;;;;;15.02;3.38;;;21.40;62.60;;;;;;5065365;28;20028;-61
2022/06/09 05:23:14;;;;;;;13.80;3.50;;;21.40;63.90;;;;;;5066667;28;20433;-60
2022/06/09 05:25:40;;;;;;;19.30;4.13;;;21.40;62.70;;;;;;5069306;28;20021;-60
2022/06/09 05:28:06;;;;;;;16.58;4.13;;;21.40;62.90;;;;;;5065383;28;20033;-60
2022/06/09 05:30:32;;;;;;;14.40;3.92;;;21.50;62.60;;;;;;5067203;28;20716;-60
2022/06/09 05:32:57;;;;;;;14.35;3.75;;;21.50;63.00;;;;;;5064158;28;20024;-61
2022/06/09 05:35:24;;;;;;;19.77;4.07;;;21.40;63.50;;;;;;5067495;28;20070;-61
2022/06/09 05:46:02;;;;;;;12.30;3.80;;;21.40;63.50;;;;;;5065951;28;20512;-60
2022/06/09 05:48:27;;;;;;;15.85;3.90;;;21.40;63.40;;;;;;5066990;28;20032;-60
2022/06/09 05:50:53;;;;;;;18.90;3.88;;;21.40;63.30;;;;;;5067043;28;20029;-60
2022/06/09 05:53:19;;;;;;;15.07;3.60;;;21.40;63.30;;;;;;5063118;28;20028;-60
2022/06/09 05:55:44;;;;;;;16.05;3.75;;;21.40;63.20;;;;;;5066773;28;20028;-60
2022/06/09 05:58:10;;;;;;;15.85;3.85;;;21.40;63.20;;;;;;5066181;28;20068;-60
2022/06/09 06:00:36;;;;;;;14.00;4.00;;;21.40;63.00;;;;;;5065224;28;20515;-60
2022/06/09 06:03:02;;;;;;;16.23;3.72;;;21.40;63.10;;;;;;5065245;28;20535;-60
2022/06/09 06:08:12;;;;;;;16.58;3.72;;;21.40;63.00;;;;;;5065448;28;20465;-58
2022/06/09 06:10:38;;;;;;;11.13;3.72;;;21.40;63.10;;;;;;5068840;28;20095;-61
2022/06/09 06:13:03;;;;;;;17.25;3.90;;;21.40;63.00;;;;;;5066404;28;20024;-58
2022/06/09 06:15:29;;;;;;;12.85;3.55;;;21.40;63.10;;;;;;5063852;28;20060;-60
2022/06/09 06:17:55;;;;;;;16.65;3.70;;;21.40;63.00;;;;;;5063484;28;20032;-58
2022/06/09 06:20:21;;;;;;;13.40;3.60;;;21.40;63.00;;;;;;5065115;28;20125;-58
2022/06/09 06:22:47;;;;;;;13.55;3.45;;;21.40;63.00;;;;;;5065867;28;20021;-58
2022/06/09 06:25:12;;;;;;;14.60;3.53;;;21.40;62.90;;;;;;5065172;28;20028;-61
2022/06/09 06:27:38;;;;;;;13.23;3.55;;;21.30;62.90;;;;;;5063777;28;20029;-60
2022/06/09 06:30:05;;;;;;;14.88;3.90;;;21.40;63.00;;;;;;5064264;28;20017;-58
2022/06/09 06:32:31;;;;;;;14.15;3.50;;;21.30;63.00;;;;;;5064870;28;20036;-58
2022/06/09 06:34:57;;;;;;;19.02;3.75;;;21.40;63.00;;;;;;5065413;28;20028;-60
2022/06/09 06:37:23;;;;;;;14.68;3.72;;;21.40;62.90;;;;;;5065992;28;20071;-60
2022/06/09 06:39:49;;;;;;;14.52;3.42;;;21.40;62.90;;;;;;5065276;28;20496;-58
2022/06/09 06:42:15;;;;;;;13.25;3.50;;;21.40;62.90;;;;;;5064051;28;20032;-60
2022/06/09 06:44:40;;;;;;;14.07;3.55;;;21.40;62.80;;;;;;5062883;28;20029;-61
2022/06/09 06:47:06;;;;;;;14.85;4.10;;;21.40;62.90;;;;;;5064706;28;20086;-61
2022/06/09 06:49:32;;;;;;;13.13;3.90;;;21.40;62.70;;;;;;5066656;28;20044;-60
2022/06/09 06:51:58;;;;;;;16.33;3.95;;;21.40;62.70;;;;;;5062941;28;20035;-61
2022/06/09 06:54:23;;;;;;;13.65;3.40;;;21.40;62.70;;;;;;5064944;28;20027;-61
2022/06/09 06:56:49;;;;;;;14.30;3.42;;;21.40;63.60;;;;;;5064367;28;20039;-61
2022/06/09 06:59:14;;;;;;;15.02;3.80;;;21.40;62.50;;;;;;5060363;28;20058;-61
2022/06/09 07:01:40;;;;;;;14.07;3.60;;;21.40;62.50;;;;;;5064860;28;20048;-60
2022/06/09 07:04:06;;;;;;;13.80;3.22;;;21.40;62.40;;;;;;5063523;28;20056;-58
2022/06/09 07:06:32;;;;;;;11.60;3.72;;;21.40;62.40;;;;;;5065310;28;20528;-57
2022/06/09 07:08:57;;;;;;;15.02;4.13;;;21.40;62.30;;;;;;5063332;28;20017;-60
2022/06/09 07:11:23;;;;;;;11.85;3.47;;;21.40;62.40;;;;;;5063999;28;20481;-60
2022/06/09 07:13:49;;;;;;;13.80;3.65;;;21.40;62.30;;;;;;5065861;28;20472;-61
2022/06/09 07:16:15;;;;;;;11.63;3.28;;;21.40;62.40;;;;;;5063692;28;20151;-61
2022/06/09 07:18:40;;;;;;;13.60;3.45;;;21.40;62.40;;;;;;5063635;28;20115;-60
2022/06/09 07:21:06;;;;;;;13.40;3.58;;;21.40;62.40;;;;;;5064322;28;20154;-60
2022/06/09 07:23:32;;;;;;;13.13;3.97;;;21.40;62.40;;;;;;5064834;28;20068;-61
2022/06/09 07:25:58;;;;;;;12.50;3.42;;;21.50;62.40;;;;;;5063075;28;20116;-60
2022/06/09 07:28:24;;;;;;;12.80;3.22;;;21.50;62.40;;;;;;5063978;28;20103;-60
2022/06/09 07:30:55;;;;;;;12.07;3.25;;;21.50;62.40;;;;;;5063560;28;20036;-61
2022/06/09 07:33:21;;;;;;;12.07;3.50;;;21.50;62.40;;;;;;5063501;28;20063;-61
2022/06/09 07:35:51;;;;;;;12.23;3.50;;;21.50;62.30;;;;;;5064666;28;20048;-60
2022/06/09 07:38:17;;;;;;;14.05;3.70;;;21.50;62.30;;;;;;5062961;28;20055;-61
2022/06/09 07:40:43;;;;;;;12.18;3.33;;;21.50;62.30;;;;;;5066416;28;20621;-60
2022/06/09 07:43:09;;;;;;;13.80;3.42;;;21.50;62.30;;;;;;5062562;28;20123;-61
2022/06/09 07:45:34;;;;;;;15.70;3.25;;;21.50;62.40;;;;;;5062386;28;20024;-60
2022/06/09 07:48:00;;;;;;;10.90;3.15;;;21.50;62.30;;;;;;5064086;28;20401;-60
2022/06/09 07:50:26;;;;;;;11.95;3.28;;;21.50;62.50;;;;;;5062980;28;20036;-60
2022/06/09 07:52:52;;;;;;;13.85;3.30;;;21.50;62.50;;;;;;5065395;28;20048;-61
2022/06/09 07:55:17;;;;;;;12.15;3.40;;;21.50;62.20;;;;;;5065677;28;20070;-60
2022/06/09 07:57:44;;;;;;;12.95;3.20;;;21.50;62.30;;;;;;5063884;28;20044;-60
2022/06/09 08:00:10;;;;;;;13.30;3.33;;;21.60;62.30;;;;;;5062374;28;20056;-61
2022/06/09 08:02:36;;;;;;;12.25;2.97;;;21.60;62.30;;;;;;5063335;28;20116;-60
2022/06/09 08:05:02;;;;;;;11.38;3.03;;;21.50;62.30;;;;;;5064775;28;20020;-60
2022/06/09 08:07:28;;;;;;;12.50;2.90;;;21.50;62.30;;;;;;5065857;28;20082;-60
2022/06/09 08:09:54;;;;;;;10.65;3.05;;;21.50;62.20;;;;;;5060906;28;20028;-60
2022/06/09 08:12:19;;;;;;;13.02;2.92;;;21.50;62.30;;;;;;5063328;28;20453;-61
2022/06/09 08:14:45;;;;;;;12.00;3.58;;;21.60;62.30;;;;;;5064474;28;20028;-60
2022/06/09 08:17:11;;;;;;;10.13;2.85;;;21.60;62.30;;;;;;5066987;28;20044;-60
2022/06/09 08:19:37;;;;;;;11.90;3.08;;;21.60;62.30;;;;;;5070322;28;20524;-60
2022/06/09 08:22:02;;;;;;;12.10;3.22;;;21.60;62.30;;;;;;5067567;28;20081;-60
2022/06/09 08:24:28;;;;;;;11.65;3.20;;;21.60;62.30;;;;;;5067803;28;20552;-60
2022/06/09 08:26:54;;;;;;;11.50;3.55;;;21.60;62.10;;;;;;5063067;28;20313;-60
2022/06/09 08:29:20;;;;;;;10.52;3.17;;;21.60;62.10;;;;;;5067577;28;20066;-60
2022/06/09 08:31:45;;;;;;;11.55;3.15;;;21.60;62.20;;;;;;5068533;28;20535;-61
2022/06/09 08:34:11;;;;;;;10.45;3.10;;;21.60;62.00;;;;;;5067913;28;20049;-61
2022/06/09 08:36:38;;;;;;;13.15;2.85;;;21.60;62.00;;;;;;5066256;28;20028;-60
2022/06/09 08:39:04;;;;;;;9.45;3.00;;;21.60;62.00;;;;;;5066038;28;20162;-60
2022/06/09 08:41:41;;;;;;;9.48;2.65;;;21.60;62.00;;;;;;5062957;28;20552;-60
2022/06/09 08:44:17;;;;;;;12.95;3.00;;;21.60;61.80;;;;;;5065184;28;20060;-61
2022/06/09 08:46:49;;;;;;;9.27;3.08;;;21.60;61.70;;;;;;5069256;28;20032;-60
2022/06/09 08:49:24;;;;;;;11.38;3.00;;;21.60;61.70;;;;;;5068557;28;20051;-60
2022/06/09 08:51:49;;;;;;;11.57;3.17;;;21.70;61.60;;;;;;5066317;28;20033;-60
2022/06/09 08:54:17;;;;;;;10.77;2.78;;;21.70;61.60;;;;;;5066823;28;20089;-60
2022/06/09 08:56:42;;;;;;;9.52;2.58;;;21.70;61.60;;;;;;5066300;28;20408;-60
2022/06/09 08:59:20;;;;;;;11.77;2.95;;;21.70;61.60;;;;;;5062813;28;20036;-60
2022/06/09 09:01:47;;;;;;;9.60;2.60;;;21.70;61.50;;;;;;5066722;28;20047;-60
2022/06/09 09:04:25;;;;;;;10.48;2.90;;;21.70;61.50;;;;;;5065991;28;20413;-60
2022/06/09 09:07:11;;;;;;;10.48;2.60;;;21.70;61.50;;;;;;5064900;28;20048;-60
2022/06/09 09:09:37;;;;;;;8.98;2.45;;;21.70;61.50;;;;;;5063239;28;20024;-61
2022/06/09 09:12:11;;;;;;;11.20;3.15;;;21.70;61.50;;;;;;5065796;28;20036;-60
2022/06/09 09:14:51;;;;;;;10.32;2.65;;;21.70;61.40;;;;;;5064233;28;20103;-61
2022/06/09 09:17:38;;;;;;;9.68;2.55;;;21.80;61.40;;;;;;5050122;28;20409;-60
2022/06/09 09:20:32;;;;;;;9.13;2.80;;;21.80;60.40;;;;;;5067339;28;20313;-60
2022/06/09 09:23:18;;;;;;;9.85;2.67;;;21.80;61.40;;;;;;5066209;28;20167;-60
2022/06/09 09:25:47;;;;;;;9.93;2.78;;;21.80;61.40;;;;;;5067956;28;20020;-61
2022/06/09 09:28:23;;;;;;;8.95;2.50;;;21.80;61.40;;;;;;5067622;28;20104;-60
2022/06/09 09:31:26;;;;;;;8.73;2.65;;;21.70;61.40;;;;;;5063915;28;20623;-60
2022/06/09 09:33:51;;;;;;;10.85;2.88;;;21.80;61.40;;;;;;5065056;28;20086;-61
2022/06/09 09:36:25;;;;;;;9.65;2.63;;;21.80;61.40;;;;;;5065562;28;20096;-61
2022/06/09 09:38:57;;;;;;;9.15;2.42;;;21.80;61.40;;;;;;5064267;28;20040;-61
2022/06/09 09:41:33;;;;;;;9.57;2.70;;;21.80;61.50;;;;;;5065048;28;20036;-60
2022/06/09 09:44:01;;;;;;;9.88;2.72;;;21.80;61.40;;;;;;5063505;28;20063;-60
2022/06/09 09:46:32;;;;;;;9.00;2.65;;;21.80;61.50;;;;;;5083862;28;20103;-61
2022/06/09 09:49:15;;;;;;;10.35;2.90;;;21.80;61.50;;;;;;5064053;28;20040;-60
2022/06/09 09:51:41;;;;;;;10.18;2.58;;;21.80;61.50;;;;;;5066024;28;20123;-61
2022/06/09 09:54:23;;;;;;;9.57;2.70;;;21.80;61.50;;;;;;5065527;28;20517;-60
2022/06/09 09:56:49;;;;;;;8.02;2.15;;;21.80;61.40;;;;;;5062756;28;20042;-60
2022/06/09 09:59:25;;;;;;;10.15;2.95;;;21.80;61.50;;;;;;5065098;28;20037;-60
2022/06/09 10:10:15;;;;;;;9.48;2.60;;;21.90;61.30;;;;;;5065622;28;20097;-60
2022/06/09 10:12:41;;;;;;;8.70;2.38;;;21.90;61.40;;;;;;5045611;28;20837;-60
2022/06/09 10:15:10;;;;;;;8.18;2.42;;;21.90;61.40;;;;;;5065515;28;20024;-60
2022/06/09 10:17:54;;;;;;;10.43;2.75;;;21.90;61.30;;;;;;5064083;28;20058;-61
2022/06/09 10:20:31;;;;;;;9.53;2.57;;;21.90;61.10;;;;;;5062306;28;20033;-60
2022/06/09 10:23:02;;;;;;;9.98;2.35;;;22.00;61.30;;;;;;5065259;28;20317;-61
2022/06/09 10:25:33;;;;;;;9.40;2.22;;;22.00;61.30;;;;;;5065373;28;20070;-60
2022/06/09 10:28:36;;;;;;;9.32;2.50;;;22.00;61.30;;;;;;5064954;28;20089;-61
2022/06/09 10:31:12;;;;;;;10.68;2.75;;;22.00;61.30;;;;;;5059638;28;20033;-60
2022/06/09 10:34:06;;;;;;;7.60;2.08;;;22.00;61.30;;;;;;5050106;28;20020;-60
2022/06/09 10:37:10;;;;;;;10.18;2.70;;;22.10;61.30;;;;;;5060973;28;20036;-60
2022/06/09 10:39:49;;;;;;;8.10;2.58;;;22.10;61.20;;;;;;5061582;28;20059;-61
2022/06/09 10:42:40;;;;;;;7.63;2.50;;;22.10;61.10;;;;;;5065133;28;20592;-61
2022/06/09 10:45:06;;;;;;;8.18;2.38;;;22.10;61.10;;;;;;5064617;28;20067;-60
2022/06/09 10:56:54;;;;;;;10.98;2.40;;;22.10;61.00;;;;;;5048716;28;20504;-60
2022/06/09 10:59:27;;;;;;;10.23;2.35;;;22.20;60.90;;;;;;5062028;28;20056;-60
2022/06/09 11:01:52;;;;;;;11.10;2.80;;;22.20;61.00;;;;;;5063465;28;20039;-60
2022/06/09 11:04:18;;;;;;;8.20;2.38;;;22.20;60.90;;;;;;5067720;28;20033;-61
2022/06/09 11:07:10;;;;;;;8.15;2.50;;;22.20;60.80;;;;;;5063625;28;20031;-60
2022/06/09 11:10:13;;;;;;;9.63;2.70;;;22.20;60.80;;;;;;5060753;28;20029;-60
2022/06/09 11:12:51;;;;;;;7.55;2.20;;;22.20;60.90;;;;;;5062287;28;20051;-60
2022/06/09 11:15:28;;;;;;;9.20;2.53;;;22.20;61.00;;;;;;5062135;28;20029;-60
2022/06/09 11:17:58;;;;;;;8.95;2.38;;;22.20;60.90;;;;;;5064743;28;20479;-60
2022/06/09 11:20:41;;;;;;;7.50;2.33;;;22.20;60.90;;;;;;5063358;28;20021;-60
2022/06/09 11:23:30;;;;;;;7.70;2.45;;;22.30;61.00;;;;;;5059347;28;20032;-60
2022/06/09 11:26:01;;;;;;;10.20;2.53;;;22.30;60.90;;;;;;5074330;28;20033;-60
2022/06/09 11:28:54;;;;;;;7.25;2.10;;;22.30;60.80;;;;;;5063834;28;21616;-60
2022/06/09 11:31:23;;;;;;;7.93;2.55;;;22.30;60.90;;;;;;5064455;28;20033;-60
2022/06/09 11:34:06;;;;;;;7.78;2.10;;;22.30;60.90;;;;;;5063860;28;20029;-60
2022/06/09 11:36:34;;;;;;;7.85;2.08;;;22.30;61.00;;;;;;5062887;28;20103;-61
2022/06/09 11:39:26;;;;;;;8.10;2.40;;;22.30;61.00;;;;;;5064187;28;20098;-60
2022/06/09 11:42:05;;;;;;;7.30;2.17;;;22.30;60.90;;;;;;5064666;28;20077;-60
2022/06/09 11:44:38;;;;;;;9.45;2.58;;;22.40;60.90;;;;;;5061882;28;20514;-60
2022/06/09 11:47:12;;;;;;;7.75;2.17;;;22.40;60.80;;;;;;5062243;28;20032;-61
2022/06/09 11:49:47;;;;;;;6.97;2.17;;;22.40;60.70;;;;;;5064116;28;20032;-61
2022/06/09 11:52:21;;;;;;;7.80;2.40;;;22.40;60.80;;;;;;5065898;28;20029;-60
2022/06/09 11:54:51;;;;;;;8.57;2.40;;;22.40;60.70;;;;;;5068388;28;20020;-60
2022/06/09 11:57:19;;;;;;;6.35;2.10;;;22.40;60.80;;;;;;5066702;28;20123;-60
2022/06/09 11:59:53;;;;;;;8.90;2.28;;;22.50;60.60;;;;;;5068875;28;20257;-61
2022/06/09 12:02:40;;;;;;;7.75;2.22;;;22.50;60.80;;;;;;5064774;28;20052;-60
2022/06/09 12:05:35;;;;;;;7.13;2.30;;;22.50;60.80;;;;;;5068608;28;20432;-61
2022/06/09 12:08:23;;;;;;;8.23;2.30;;;22.50;60.70;;;;;;5064256;28;20033;-61
2022/06/09 12:11:00;;;;;;;8.55;2.17;;;22.50;60.70;;;;;;5070738;28;20032;-60
2022/06/09 12:13:33;;;;;;;6.00;2.00;;;22.60;60.70;;;;;;5070354;28;20021;-60
2022/06/09 12:16:20;;;;;;;8.95;2.20;;;22.60;60.50;;;;;;5067846;28;20397;-61
2022/06/09 12:18:57;;;;;;;7.32;2.20;;;22.60;60.70;;;;;;5064708;28;20048;-60
2022/06/09 12:21:32;;;;;;;9.38;2.92;;;22.60;60.60;;;;;;5064815;28;20077;-60
2022/06/09 12:24:01;;;;;;;12.55;3.10;;;22.60;60.50;;;;;;5066239;28;20463;-60
2022/06/09 12:26:42;;;;;;;14.93;3.63;;;22.60;60.50;;;;;;5062647;28;20396;-61
2022/06/09 12:29:21;;;;;;;14.93;3.45;;;22.60;60.50;;;;;;5067947;28;20049;-60
2022/06/09 12:32:09;;;;;;;14.25;3.47;;;22.70;60.50;;;;;;5067267;28;20378;-60
2022/06/09 12:34:47;;;;;;;15.75;3.95;;;22.70;60.50;;;;;;5069140;28;20077;-60
2022/06/09 12:37:33;;;;;;;18.67;4.25;;;22.80;60.50;;;;;;5067003;28;20037;-60
2022/06/09 12:40:04;;;;;;;13.48;3.92;;;22.80;60.50;;;;;;5050842;28;20129;-60
2022/06/09 12:42:44;;;;;;;18.67;4.88;;;22.80;60.40;;;;;;5065035;28;20017;-61
2022/06/09 12:45:20;;;;;;;17.50;4.80;;;22.80;60.50;;;;;;5065758;28;20031;-61
2022/06/09 12:47:55;;;;;;;12.90;3.85;;;22.80;60.50;;;;;;5067845;28;20017;-61
2022/06/09 12:50:29;;;;;;;14.52;3.97;;;22.80;60.30;;;;;;5066265;28;20662;-60
2022/06/09 12:52:56;;;;;;;14.43;4.10;;;22.90;60.40;;;;;;5068357;28;20031;-60
2022/06/09 12:55:30;;;;;;;16.05;4.32;;;22.90;60.30;;;;;;5068638;28;20040;-61
2022/06/09 12:58:06;;;;;;;16.05;4.63;;;22.90;60.30;;;;;;5065481;28;20043;-61
2022/06/09 13:00:35;;;;;;;17.58;4.60;;;22.90;60.40;;;;;;5064127;28;20016;-59
2022/06/09 13:03:00;;;;;;;15.63;4.15;;;23.00;60.30;;;;;;5066303;28;20025;-61
2022/06/09 13:05:36;;;;;;;14.93;4.70;;;22.90;60.30;;;;;;5066339;28;20066;-61
2022/06/09 13:08:37;;;;;;;18.63;4.95;;;23.00;60.30;;;;;;5064723;28;20043;-61
2022/06/09 13:11:04;;;;;;;17.23;4.53;;;23.00;60.20;;;;;;5042284;28;20098;-61
2022/06/09 13:13:38;;;;;;;15.05;4.50;;;23.00;60.20;;;;;;5028980;28;20082;-61
2022/06/09 13:16:12;;;;;;;16.13;4.60;;;23.10;60.20;;;;;;5025761;28;20032;-60
2022/06/09 13:18:44;;;;;;;19.65;4.85;;;23.10;60.20;;;;;;5008985;28;20128;-60
2022/06/09 13:21:15;;;;;;;13.82;4.25;;;23.10;60.10;;;;;;5013995;28;20053;-60
2022/06/09 13:23:42;;;;;;;14.35;4.35;;;23.10;60.00;;;;;;5042424;28;20117;-61